createdAt,value
2016-12-05T00:00:48.780Z,1020.6
2016-12-05T00:01:48.786Z,1020.59
2016-12-05T00:02:48.795Z,1020.61
2016-12-05T00:03:48.802Z,1020.61
2016-12-05T00:04:48.863Z,1020.64
2016-12-05T00:05:48.866Z,1020.62
2016-12-05T00:06:48.895Z,1020.63
2016-12-05T00:07:48.846Z,1020.63
2016-12-05T00:08:48.889Z,1020.6
2016-12-05T00:09:48.842Z,1020.55
2016-12-05T00:10:48.900Z,1020.54
2016-12-05T00:11:48.908Z,1020.55
2016-12-05T00:12:48.865Z,1020.55
2016-12-05T00:13:48.922Z,1020.59
2016-12-05T00:14:48.880Z,1020.53
2016-12-05T00:15:49.022Z,1020.56
2016-12-05T00:16:48.972Z,1020.51
2016-12-05T00:17:48.901Z,1020.55
2016-12-05T00:18:48.952Z,1020.53
2016-12-05T00:19:48.966Z,1020.5
2016-12-05T00:20:48.969Z,1020.52
2016-12-05T00:21:48.929Z,1020.53
2016-12-05T00:22:48.995Z,1020.52
2016-12-05T00:23:48.945Z,1020.55
2016-12-05T00:24:48.949Z,1020.54
2016-12-05T00:25:49.008Z,1020.54
2016-12-05T00:26:49.013Z,1020.53
2016-12-05T00:27:49.022Z,1020.54
2016-12-05T00:28:48.979Z,1020.55
2016-12-05T00:29:49.166Z,1020.49
2016-12-05T00:30:48.993Z,1020.54
2016-12-05T00:31:49.001Z,1020.51
2016-12-05T00:32:49.009Z,1020.52
2016-12-05T00:33:49.036Z,1020.56
2016-12-05T00:34:49.130Z,1020.55
2016-12-05T00:35:49.029Z,1020.52
2016-12-05T00:36:49.393Z,1020.56
2016-12-05T00:37:49.044Z,1020.56
2016-12-05T00:38:49.138Z,1020.48
2016-12-05T00:39:49.057Z,1020.51
2016-12-05T00:40:49.064Z,1020.49
2016-12-05T00:41:49.171Z,1020.46
2016-12-05T00:42:49.078Z,1020.45
2016-12-05T00:43:49.086Z,1020.47
2016-12-05T00:44:49.094Z,1020.47
2016-12-05T00:45:49.206Z,1020.46
2016-12-05T00:46:49.107Z,1020.47
2016-12-05T00:47:49.115Z,1020.49
2016-12-05T00:48:49.128Z,1020.47
2016-12-05T00:49:49.128Z,1020.45
2016-12-05T00:50:49.205Z,1020.44
2016-12-05T00:51:49.193Z,1020.48
2016-12-05T00:52:49.183Z,1020.47
2016-12-05T00:53:49.158Z,1020.41
2016-12-05T00:54:49.213Z,1020.43
2016-12-05T00:55:49.172Z,1020.39
2016-12-05T00:56:49.228Z,1020.37
2016-12-05T00:57:49.186Z,1020.35
2016-12-05T00:58:49.242Z,1020.31
2016-12-05T00:59:49.251Z,1020.31
2016-12-05T01:00:49.206Z,1020.33
2016-12-05T01:01:49.213Z,1020.27
2016-12-05T01:02:49.222Z,1020.38
2016-12-05T01:03:49.228Z,1020.34
2016-12-05T01:04:49.235Z,1020.36
2016-12-05T01:05:49.243Z,1020.38
2016-12-05T01:06:49.578Z,1020.35
2016-12-05T01:07:49.327Z,1020.36
2016-12-05T01:08:49.264Z,1020.36
2016-12-05T01:09:49.315Z,1020.37
2016-12-05T01:10:49.365Z,1020.38
2016-12-05T01:11:49.310Z,1020.41
2016-12-05T01:12:49.371Z,1020.42
2016-12-05T01:13:49.514Z,1020.41
2016-12-05T01:14:49.314Z,1020.43
2016-12-05T01:15:49.398Z,1020.4
2016-12-05T01:16:49.322Z,1020.47
2016-12-05T01:17:49.380Z,1020.47
2016-12-05T01:18:49.339Z,1020.44
2016-12-05T01:19:49.423Z,1020.42
2016-12-05T01:20:49.349Z,1020.43
2016-12-05T01:21:49.430Z,1020.4
2016-12-05T01:22:49.364Z,1020.37
2016-12-05T01:23:49.471Z,1020.38
2016-12-05T01:24:49.429Z,1020.41
2016-12-05T01:25:49.462Z,1020.35
2016-12-05T01:26:49.395Z,1020.33
2016-12-05T01:27:49.447Z,1020.32
2016-12-05T01:28:49.456Z,1020.35
2016-12-05T01:29:49.412Z,1020.35
2016-12-05T01:30:49.421Z,1020.32
2016-12-05T01:31:49.477Z,1020.31
2016-12-05T01:32:49.925Z,1020.3
2016-12-05T01:33:49.441Z,1020.32
2016-12-05T01:34:49.524Z,1020.28
2016-12-05T01:35:49.457Z,1020.29
2016-12-05T01:36:49.463Z,1020.3
2016-12-05T01:37:49.558Z,1020.31
2016-12-05T01:38:49.527Z,1020.32
2016-12-05T01:39:49.484Z,1020.34
2016-12-05T01:40:49.515Z,1020.31
2016-12-05T01:41:49.569Z,1020.33
2016-12-05T01:42:49.576Z,1020.32
2016-12-05T01:43:49.513Z,1020.31
2016-12-05T01:44:49.520Z,1020.26
2016-12-05T01:45:49.629Z,1020.23
2016-12-05T01:46:49.615Z,1020.23
2016-12-05T01:47:49.612Z,1020.22
2016-12-05T01:48:49.623Z,1020.25
2016-12-05T01:49:49.555Z,1020.21
2016-12-05T01:50:49.563Z,1020.23
2016-12-05T01:51:49.606Z,1020.26
2016-12-05T01:52:49.592Z,1020.23
2016-12-05T01:53:49.583Z,1020.27
2016-12-05T01:54:49.592Z,1020.25
2016-12-05T01:55:49.598Z,1020.29
2016-12-05T01:56:49.655Z,1020.27
2016-12-05T01:57:49.662Z,1020.28
2016-12-05T01:58:49.695Z,1020.29
2016-12-05T01:59:49.703Z,1020.28
2016-12-05T02:00:49.684Z,1020.25
2016-12-05T02:01:49.733Z,1020.21
2016-12-05T02:02:49.649Z,1020.21
2016-12-05T02:03:49.954Z,1020.2
2016-12-05T02:04:49.710Z,1020.25
2016-12-05T02:05:49.669Z,1020.22
2016-12-05T02:06:49.714Z,1020.24
2016-12-05T02:07:49.733Z,1020.23
2016-12-05T02:08:49.786Z,1020.17
2016-12-05T02:09:49.746Z,1020.21
2016-12-05T02:10:49.788Z,1020.19
2016-12-05T02:11:49.711Z,1020.2
2016-12-05T02:12:49.718Z,1020.23
2016-12-05T02:13:49.728Z,1020.19
2016-12-05T02:14:49.783Z,1020.26
2016-12-05T02:15:49.762Z,1020.21
2016-12-05T02:16:49.797Z,1020.21
2016-12-05T02:17:49.792Z,1020.25
2016-12-05T02:18:49.851Z,1020.21
2016-12-05T02:19:49.768Z,1020.22
2016-12-05T02:20:49.777Z,1020.2
2016-12-05T02:21:49.833Z,1020.22
2016-12-05T02:22:49.873Z,1020.13
2016-12-05T02:23:49.835Z,1020.16
2016-12-05T02:24:49.869Z,1020.15
2016-12-05T02:25:49.878Z,1020.1
2016-12-05T02:26:49.879Z,1020.09
2016-12-05T02:27:49.825Z,1020.05
2016-12-05T02:28:49.895Z,1020.05
2016-12-05T02:29:49.839Z,1020
2016-12-05T02:30:49.896Z,1019.99
2016-12-05T02:31:49.853Z,1019.99
2016-12-05T02:32:49.860Z,1020.02
2016-12-05T02:33:49.927Z,1020.01
2016-12-05T02:34:51.010Z,1020.02
2016-12-05T02:35:49.965Z,1020
2016-12-05T02:36:49.972Z,1020.01
2016-12-05T02:37:49.946Z,1019.98
2016-12-05T02:38:49.945Z,1020.01
2016-12-05T02:39:49.912Z,1020.05
2016-12-05T02:40:49.967Z,1020.07
2016-12-05T02:41:49.992Z,1020.04
2016-12-05T02:42:50.002Z,1020.07
2016-12-05T02:43:50.001Z,1020.07
2016-12-05T02:44:49.946Z,1020.08
2016-12-05T02:45:50.023Z,1020.08
2016-12-05T02:46:49.969Z,1020.04
2016-12-05T02:47:50.056Z,1020.06
2016-12-05T02:48:49.974Z,1020.08
2016-12-05T02:49:50.041Z,1020.1
2016-12-05T02:50:50.044Z,1020.07
2016-12-05T02:51:50.048Z,1020.1
2016-12-05T02:52:50.004Z,1020.04
2016-12-05T02:53:50.009Z,1020.05
2016-12-05T02:54:50.103Z,1020.03
2016-12-05T02:55:50.099Z,1020.02
2016-12-05T02:56:50.106Z,1020.07
2016-12-05T02:57:50.090Z,1020.03
2016-12-05T02:58:50.925Z,1020
2016-12-05T02:59:50.106Z,1019.99
2016-12-05T03:00:50.151Z,1019.97
2016-12-05T03:01:50.170Z,1020.01
2016-12-05T03:02:50.159Z,1020
2016-12-05T03:03:50.081Z,1020.02
2016-12-05T03:04:50.183Z,1020.07
2016-12-05T03:05:50.166Z,1020.06
2016-12-05T03:06:50.181Z,1020.08
2016-12-05T03:07:50.171Z,1020.12
2016-12-05T03:08:50.218Z,1020.11
2016-12-05T03:09:50.179Z,1020.1
2016-12-05T03:10:50.130Z,1020.08
2016-12-05T03:11:50.138Z,1020.08
2016-12-05T03:12:50.217Z,1020.09
2016-12-05T03:13:50.732Z,1020.08
2016-12-05T03:14:50.173Z,1020.12
2016-12-05T03:15:50.225Z,1020.13
2016-12-05T03:16:50.252Z,1020.14
2016-12-05T03:17:50.230Z,1020.14
2016-12-05T03:18:50.187Z,1020.13
2016-12-05T03:19:50.271Z,1020.11
2016-12-05T03:20:50.306Z,1020.13
2016-12-05T03:21:50.294Z,1020.09
2016-12-05T03:22:50.322Z,1020.09
2016-12-05T03:23:50.284Z,1020.06
2016-12-05T03:24:50.312Z,1020.04
2016-12-05T03:25:50.325Z,1020.06
2016-12-05T03:26:50.293Z,1020.03
2016-12-05T03:27:50.314Z,1020.02
2016-12-05T03:28:51.109Z,1020.01
2016-12-05T03:29:50.269Z,1019.97
2016-12-05T03:30:50.320Z,1019.95
2016-12-05T03:31:50.354Z,1019.93
2016-12-05T03:32:50.336Z,1019.91
2016-12-05T03:33:50.386Z,1019.9
2016-12-05T03:34:50.314Z,1019.9
2016-12-05T03:35:50.351Z,1019.86
2016-12-05T03:36:50.315Z,1019.85
2016-12-05T03:37:50.403Z,1019.86
2016-12-05T03:38:50.395Z,1019.81
2016-12-05T03:39:50.373Z,1019.81
2016-12-05T03:40:50.389Z,1019.8
2016-12-05T03:41:50.439Z,1019.81
2016-12-05T03:42:50.358Z,1019.84
2016-12-05T03:43:50.415Z,1019.83
2016-12-05T03:44:50.468Z,1019.79
2016-12-05T03:45:50.474Z,1019.78
2016-12-05T03:46:50.387Z,1019.8
2016-12-05T03:47:50.474Z,1019.81
2016-12-05T03:48:50.506Z,1019.77
2016-12-05T03:49:50.408Z,1019.81
2016-12-05T03:50:50.465Z,1019.78
2016-12-05T03:51:50.422Z,1019.77
2016-12-05T03:52:50.512Z,1019.79
2016-12-05T03:53:50.436Z,1019.77
2016-12-05T03:54:50.517Z,1019.78
2016-12-05T03:55:50.450Z,1019.71
2016-12-05T03:56:50.458Z,1019.75
2016-12-05T03:57:50.491Z,1019.7
2016-12-05T03:58:50.497Z,1019.71
2016-12-05T03:59:50.479Z,1019.7
2016-12-05T04:00:50.536Z,1019.71
2016-12-05T04:01:50.611Z,1019.68
2016-12-05T04:02:50.500Z,1019.65
2016-12-05T04:03:50.548Z,1019.66
2016-12-05T04:04:50.552Z,1019.65
2016-12-05T04:05:50.555Z,1019.65
2016-12-05T04:06:50.579Z,1019.63
2016-12-05T04:07:50.536Z,1019.63
2016-12-05T04:08:50.613Z,1019.61
2016-12-05T04:09:50.600Z,1019.67
2016-12-05T04:10:50.605Z,1019.66
2016-12-05T04:11:50.614Z,1019.69
2016-12-05T04:12:50.600Z,1019.71
2016-12-05T04:13:50.641Z,1019.74
2016-12-05T04:14:50.635Z,1019.76
2016-12-05T04:15:50.727Z,1019.73
2016-12-05T04:16:50.600Z,1019.76
2016-12-05T04:17:50.658Z,1019.73
2016-12-05T04:18:50.612Z,1019.72
2016-12-05T04:19:50.619Z,1019.74
2016-12-05T04:20:50.695Z,1019.71
2016-12-05T04:21:50.633Z,1019.74
2016-12-05T04:22:50.722Z,1019.76
2016-12-05T04:23:50.756Z,1019.72
2016-12-05T04:24:50.705Z,1019.75
2016-12-05T04:25:50.713Z,1019.73
2016-12-05T04:26:50.753Z,1019.69
2016-12-05T04:27:50.761Z,1019.72
2016-12-05T04:28:51.571Z,1019.71
2016-12-05T04:29:50.768Z,1019.69
2016-12-05T04:30:50.780Z,1019.73
2016-12-05T04:31:50.817Z,1019.73
2016-12-05T04:32:50.789Z,1019.73
2016-12-05T04:33:50.818Z,1019.76
2016-12-05T04:34:50.725Z,1019.77
2016-12-05T04:35:50.769Z,1019.71
2016-12-05T04:36:50.820Z,1019.75
2016-12-05T04:37:50.821Z,1019.72
2016-12-05T04:38:51.689Z,1019.68
2016-12-05T04:39:50.762Z,1019.68
2016-12-05T04:40:50.768Z,1019.67
2016-12-05T04:41:50.868Z,1019.67
2016-12-05T04:42:50.815Z,1019.7
2016-12-05T04:43:50.808Z,1019.72
2016-12-05T04:44:50.795Z,1019.73
2016-12-05T04:45:50.803Z,1019.72
2016-12-05T04:46:50.859Z,1019.73
2016-12-05T04:47:50.922Z,1019.77
2016-12-05T04:48:50.823Z,1019.76
2016-12-05T04:49:50.887Z,1019.79
2016-12-05T04:50:50.890Z,1019.81
2016-12-05T04:51:50.844Z,1019.76
2016-12-05T04:52:51.102Z,1019.79
2016-12-05T04:53:50.947Z,1019.82
2016-12-05T04:54:50.917Z,1019.84
2016-12-05T04:55:50.874Z,1019.8
2016-12-05T04:56:50.882Z,1019.81
2016-12-05T04:57:50.986Z,1019.83
2016-12-05T04:58:50.893Z,1019.82
2016-12-05T04:59:50.924Z,1019.85
2016-12-05T05:00:50.909Z,1019.81
2016-12-05T05:01:51.003Z,1019.84
2016-12-05T05:02:50.991Z,1019.82
2016-12-05T05:03:51.002Z,1019.81
2016-12-05T05:04:50.956Z,1019.78
2016-12-05T05:05:50.943Z,1019.77
2016-12-05T05:06:50.968Z,1019.78
2016-12-05T05:07:51.059Z,1019.77
2016-12-05T05:08:50.976Z,1019.76
2016-12-05T05:09:50.971Z,1019.76
2016-12-05T05:10:51.043Z,1019.76
2016-12-05T05:11:50.985Z,1019.76
2016-12-05T05:12:51.030Z,1019.78
2016-12-05T05:13:51.051Z,1019.77
2016-12-05T05:14:51.067Z,1019.81
2016-12-05T05:15:51.050Z,1019.77
2016-12-05T05:16:51.123Z,1019.79
2016-12-05T05:17:51.121Z,1019.79
2016-12-05T05:18:51.086Z,1019.84
2016-12-05T05:19:51.042Z,1019.85
2016-12-05T05:20:51.049Z,1019.83
2016-12-05T05:21:51.107Z,1019.83
2016-12-05T05:22:51.105Z,1019.85
2016-12-05T05:23:51.071Z,1019.82
2016-12-05T05:24:51.077Z,1019.84
2016-12-05T05:25:51.151Z,1019.84
2016-12-05T05:26:51.094Z,1019.84
2016-12-05T05:27:51.178Z,1019.86
2016-12-05T05:28:51.106Z,1019.83
2016-12-05T05:29:51.113Z,1019.83
2016-12-05T05:30:51.169Z,1019.8
2016-12-05T05:31:51.178Z,1019.78
2016-12-05T05:32:51.185Z,1019.77
2016-12-05T05:33:51.233Z,1019.78
2016-12-05T05:34:51.198Z,1019.76
2016-12-05T05:35:51.157Z,1019.82
2016-12-05T05:36:51.262Z,1019.82
2016-12-05T05:37:51.170Z,1019.78
2016-12-05T05:38:51.251Z,1019.8
2016-12-05T05:39:51.184Z,1019.81
2016-12-05T05:40:51.281Z,1019.83
2016-12-05T05:41:51.266Z,1019.82
2016-12-05T05:42:51.206Z,1019.82
2016-12-05T05:43:51.212Z,1019.8
2016-12-05T05:44:51.276Z,1019.77
2016-12-05T05:45:51.312Z,1019.79
2016-12-05T05:46:51.310Z,1019.77
2016-12-05T05:47:51.332Z,1019.81
2016-12-05T05:48:51.273Z,1019.84
2016-12-05T05:49:51.255Z,1019.8
2016-12-05T05:50:51.261Z,1019.77
2016-12-05T05:51:51.268Z,1019.78
2016-12-05T05:52:51.576Z,1019.72
2016-12-05T05:53:51.334Z,1019.76
2016-12-05T05:54:51.346Z,1019.76
2016-12-05T05:55:51.398Z,1019.81
2016-12-05T05:56:51.390Z,1019.81
2016-12-05T05:57:51.374Z,1019.86
2016-12-05T05:58:51.319Z,1019.87
2016-12-05T05:59:51.409Z,1019.88
2016-12-05T06:00:51.434Z,1019.91
2016-12-05T06:01:51.341Z,1019.9
2016-12-05T06:02:51.348Z,1019.95
2016-12-05T06:03:51.354Z,1019.94
2016-12-05T06:04:51.458Z,1019.93
2016-12-05T06:05:51.369Z,1019.91
2016-12-05T06:06:51.453Z,1019.91
2016-12-05T06:07:51.454Z,1019.97
2016-12-05T06:08:51.418Z,1019.95
2016-12-05T06:09:51.398Z,1019.93
2016-12-05T06:10:51.494Z,1019.91
2016-12-05T06:11:51.490Z,1019.95
2016-12-05T06:12:51.419Z,1019.9
2016-12-05T06:13:51.427Z,1019.92
2016-12-05T06:14:51.433Z,1019.9
2016-12-05T06:15:51.527Z,1019.89
2016-12-05T06:16:51.578Z,1019.87
2016-12-05T06:17:51.569Z,1019.89
2016-12-05T06:18:51.462Z,1019.94
2016-12-05T06:19:51.545Z,1019.95
2016-12-05T06:20:51.490Z,1019.92
2016-12-05T06:21:51.562Z,1019.94
2016-12-05T06:22:51.572Z,1019.99
2016-12-05T06:23:51.497Z,1020.02
2016-12-05T06:24:51.504Z,1020.03
2016-12-05T06:25:51.560Z,1020
2016-12-05T06:26:51.589Z,1020.07
2016-12-05T06:27:51.607Z,1020.07
2016-12-05T06:28:51.582Z,1020.07
2016-12-05T06:29:51.538Z,1020.04
2016-12-05T06:30:51.629Z,1020.08
2016-12-05T06:31:51.656Z,1020.09
2016-12-05T06:32:51.609Z,1020.11
2016-12-05T06:33:51.566Z,1020.13
2016-12-05T06:34:51.581Z,1020.12
2016-12-05T06:35:51.583Z,1020.14
2016-12-05T06:36:51.638Z,1020.16
2016-12-05T06:37:51.651Z,1020.16
2016-12-05T06:38:51.604Z,1020.17
2016-12-05T06:39:51.699Z,1020.14
2016-12-05T06:40:51.712Z,1020.12
2016-12-05T06:41:51.625Z,1020.1
2016-12-05T06:42:51.682Z,1020.11
2016-12-05T06:43:51.639Z,1020.11
2016-12-05T06:44:51.696Z,1020.09
2016-12-05T06:45:51.714Z,1020.13
2016-12-05T06:46:51.778Z,1020.11
2016-12-05T06:47:51.665Z,1020.14
2016-12-05T06:48:51.675Z,1020.12
2016-12-05T06:49:51.682Z,1020.15
2016-12-05T06:50:51.787Z,1020.15
2016-12-05T06:51:51.695Z,1020.2
2016-12-05T06:52:51.784Z,1020.18
2016-12-05T06:53:51.739Z,1020.2
2016-12-05T06:54:51.714Z,1020.17
2016-12-05T06:55:51.724Z,1020.22
2016-12-05T06:56:51.731Z,1020.23
2016-12-05T06:57:51.738Z,1020.24
2016-12-05T06:58:51.822Z,1020.22
2016-12-05T06:59:51.839Z,1020.2
2016-12-05T07:00:51.759Z,1020.23
2016-12-05T07:01:51.766Z,1020.24
2016-12-05T07:02:51.773Z,1020.21
2016-12-05T07:03:51.779Z,1020.2
2016-12-05T07:04:51.787Z,1020.23
2016-12-05T07:05:51.888Z,1020.23
2016-12-05T07:06:51.801Z,1020.22
2016-12-05T07:07:51.810Z,1020.23
2016-12-05T07:08:51.921Z,1020.23
2016-12-05T07:09:51.902Z,1020.24
2016-12-05T07:10:51.830Z,1020.22
2016-12-05T07:11:51.887Z,1020.24
2016-12-05T07:12:51.920Z,1020.25
2016-12-05T07:13:51.895Z,1020.28
2016-12-05T07:14:51.968Z,1020.25
2016-12-05T07:15:51.865Z,1020.28
2016-12-05T07:16:51.871Z,1020.23
2016-12-05T07:17:51.928Z,1020.24
2016-12-05T07:18:51.961Z,1020.24
2016-12-05T07:19:51.959Z,1020.23
2016-12-05T07:20:51.954Z,1020.23
2016-12-05T07:21:51.905Z,1020.26
2016-12-05T07:22:51.913Z,1020.21
2016-12-05T07:23:51.921Z,1020.2
2016-12-05T07:24:51.980Z,1020.22
2016-12-05T07:25:51.979Z,1020.18
2016-12-05T07:26:51.941Z,1020.21
2016-12-05T07:27:51.997Z,1020.2
2016-12-05T07:28:51.955Z,1020.18
2016-12-05T07:29:52.008Z,1020.17
2016-12-05T07:30:51.971Z,1020.21
2016-12-05T07:31:51.977Z,1020.23
2016-12-05T07:32:51.991Z,1020.19
2016-12-05T07:33:51.990Z,1020.21
2016-12-05T07:34:51.998Z,1020.22
2016-12-05T07:35:52.005Z,1020.2
2016-12-05T07:36:52.060Z,1020.22
2016-12-05T07:37:52.020Z,1020.26
2016-12-05T07:38:52.103Z,1020.19
2016-12-05T07:39:52.051Z,1020.2
2016-12-05T07:40:53.343Z,1020.24
2016-12-05T07:41:52.099Z,1020.19
2016-12-05T07:42:52.106Z,1020.17
2016-12-05T07:43:52.062Z,1020.19
2016-12-05T07:44:52.070Z,1020.17
2016-12-05T07:45:52.126Z,1020.14
2016-12-05T07:46:52.084Z,1020.11
2016-12-05T07:47:52.092Z,1020.13
2016-12-05T07:48:52.100Z,1020.11
2016-12-05T07:49:52.105Z,1020.11
2016-12-05T07:50:52.112Z,1020.12
2016-12-05T07:51:52.172Z,1020.14
2016-12-05T07:52:52.129Z,1020.18
2016-12-05T07:53:52.134Z,1020.13
2016-12-05T07:54:52.193Z,1020.13
2016-12-05T07:55:52.151Z,1020.14
2016-12-05T07:56:52.157Z,1020.15
2016-12-05T07:57:52.254Z,1020.16
2016-12-05T07:58:52.173Z,1020.15
2016-12-05T07:59:52.232Z,1020.2
2016-12-05T08:00:52.189Z,1020.2
2016-12-05T08:01:52.195Z,1020.21
2016-12-05T08:02:52.204Z,1020.19
2016-12-05T08:03:52.211Z,1020.21
2016-12-05T08:08:47.151Z,1020.24
2016-12-05T08:09:47.157Z,1020.21
2016-12-05T08:10:47.164Z,1020.2
2016-12-05T08:11:47.173Z,1020.21
2016-12-05T08:12:47.179Z,1020.23
2016-12-05T08:13:47.186Z,1020.21
2016-12-05T08:14:47.195Z,1020.21
2016-12-05T08:15:47.203Z,1020.2
2016-12-05T08:16:47.211Z,1020.21
2016-12-05T08:17:47.368Z,1020.2
2016-12-05T08:18:47.225Z,1020.21
2016-12-05T08:19:47.235Z,1020.16
2016-12-05T08:20:47.291Z,1020.2
2016-12-05T08:21:47.248Z,1020.19
2016-12-05T08:22:47.256Z,1020.22
2016-12-05T08:23:47.265Z,1020.23
2016-12-05T08:24:47.271Z,1020.26
2016-12-05T08:25:47.278Z,1020.19
2016-12-05T08:26:47.288Z,1020.23
2016-12-05T08:27:47.344Z,1020.22
2016-12-05T08:28:47.302Z,1020.23
2016-12-05T08:29:47.309Z,1020.26
2016-12-05T08:30:47.317Z,1020.34
2016-12-05T08:31:47.324Z,1020.27
2016-12-05T08:32:47.332Z,1020.18
2016-12-05T08:33:47.390Z,1020.19
2016-12-05T08:34:47.347Z,1020.24
2016-12-05T08:35:47.354Z,1020.24
2016-12-05T08:36:47.363Z,1020.18
2016-12-05T08:37:47.421Z,1020.24
2016-12-05T08:38:47.379Z,1020.21
2016-12-05T08:39:47.385Z,1020.16
2016-12-05T08:40:47.393Z,1020.16
2016-12-05T08:41:47.403Z,1020.17
2016-12-05T08:42:47.457Z,1020.17
2016-12-05T08:43:47.416Z,1020.17
2016-12-05T08:44:47.474Z,1020.18
2016-12-05T08:45:47.431Z,1020.21
2016-12-05T08:46:47.440Z,1020.19
2016-12-05T08:47:47.497Z,1020.16
2016-12-05T08:48:47.454Z,1020.17
2016-12-05T08:49:47.510Z,1020.18
2016-12-05T08:50:47.469Z,1020.2
2016-12-05T08:51:47.477Z,1020.19
2016-12-05T08:52:47.485Z,1020.21
2016-12-05T08:53:47.491Z,1020.21
2016-12-05T08:54:47.500Z,1020.21
2016-12-05T08:55:47.512Z,1020.26
2016-12-05T08:56:47.515Z,1020.23
2016-12-05T08:57:47.522Z,1020.25
2016-12-05T08:58:47.531Z,1020.27
2016-12-05T08:59:47.538Z,1020.28
2016-12-05T09:00:47.545Z,1020.26
2016-12-05T09:01:47.556Z,1020.27
2016-12-05T09:02:47.561Z,1020.27
2016-12-05T09:03:47.570Z,1020.27
2016-12-05T09:04:47.579Z,1020.29
2016-12-05T09:05:47.585Z,1020.29
2016-12-05T09:06:47.593Z,1020.31
2016-12-05T09:07:47.601Z,1020.31
2016-12-05T09:08:47.658Z,1020.32
2016-12-05T09:09:47.666Z,1020.35
2016-12-05T09:10:48.715Z,1020.35
2016-12-05T09:11:47.631Z,1020.36
2016-12-05T09:12:47.691Z,1020.36
2016-12-05T09:13:47.698Z,1020.38
2016-12-05T09:14:47.706Z,1020.37
2016-12-05T09:15:47.663Z,1020.38
2016-12-05T09:16:47.672Z,1020.35
2016-12-05T09:17:47.680Z,1020.36
2016-12-05T09:18:47.688Z,1020.37
2016-12-05T09:19:47.696Z,1020.39
2016-12-05T09:20:47.702Z,1020.41
2016-12-05T09:21:48.311Z,1020.41
2016-12-05T09:22:47.718Z,1020.38
2016-12-05T09:23:47.726Z,1020.39
2016-12-05T09:24:47.735Z,1020.41
2016-12-05T09:25:47.741Z,1020.4
2016-12-05T09:26:47.800Z,1020.43
2016-12-05T09:27:47.757Z,1020.44
2016-12-05T09:28:47.765Z,1020.44
2016-12-05T09:29:47.773Z,1020.43
2016-12-05T09:30:47.780Z,1020.43
2016-12-05T09:31:47.790Z,1020.43
2016-12-05T09:32:48.196Z,1020.47
2016-12-05T09:33:47.854Z,1020.44
2016-12-05T09:34:47.811Z,1020.4
2016-12-05T09:35:47.819Z,1020.46
2016-12-05T09:36:47.877Z,1020.43
2016-12-05T09:37:47.835Z,1020.4
2016-12-05T09:38:47.839Z,1020.45
2016-12-05T09:39:47.847Z,1020.39
2016-12-05T09:40:47.853Z,1020.38
2016-12-05T09:41:47.859Z,1020.39
2016-12-05T09:42:47.865Z,1020.39
2016-12-05T09:43:47.971Z,1020.42
2016-12-05T09:44:47.878Z,1020.5
2016-12-05T09:45:47.887Z,1020.51
2016-12-05T09:46:47.890Z,1020.52
2016-12-05T09:47:47.899Z,1020.55
2016-12-05T09:48:47.905Z,1020.57
2016-12-05T09:49:47.964Z,1020.59
2016-12-05T09:50:47.921Z,1020.53
2016-12-05T09:51:47.928Z,1020.53
2016-12-05T09:52:47.985Z,1020.6
2016-12-05T09:53:47.944Z,1020.57
2016-12-05T09:54:47.951Z,1020.54
2016-12-05T09:55:48.009Z,1020.53
2016-12-05T09:56:48.017Z,1020.57
2016-12-05T09:57:47.975Z,1020.61
2016-12-05T09:58:47.982Z,1020.62
2016-12-05T09:59:48.040Z,1020.62
2016-12-05T10:00:47.997Z,1020.57
2016-12-05T10:01:48.006Z,1020.53
2016-12-05T10:02:48.011Z,1020.53
2016-12-05T10:03:48.021Z,1020.47
2016-12-05T10:04:48.028Z,1020.47
2016-12-05T10:05:48.037Z,1020.45
2016-12-05T10:06:48.045Z,1020.47
2016-12-05T10:07:49.203Z,1020.49
2016-12-05T10:08:48.110Z,1020.48
2016-12-05T10:09:48.069Z,1020.46
2016-12-05T10:10:48.076Z,1020.48
2016-12-05T10:11:48.132Z,1020.5
2016-12-05T10:12:48.140Z,1020.46
2016-12-05T10:13:48.097Z,1020.42
2016-12-05T10:14:48.124Z,1020.38
2016-12-05T10:15:48.107Z,1020.37
2016-12-05T10:16:48.113Z,1020.39
2016-12-05T10:17:48.118Z,1020.39
2016-12-05T10:18:49.076Z,1020.4
2016-12-05T10:19:48.130Z,1020.39
2016-12-05T10:20:48.137Z,1020.42
2016-12-05T10:21:48.142Z,1020.43
2016-12-05T10:22:48.199Z,1020.45
2016-12-05T10:23:48.155Z,1020.46
2016-12-05T10:24:48.162Z,1020.41
2016-12-05T10:25:48.168Z,1020.46
2016-12-05T10:26:48.176Z,1020.48
2016-12-05T10:27:48.233Z,1020.48
2016-12-05T10:28:48.188Z,1020.47
2016-12-05T10:29:48.697Z,1020.44
2016-12-05T10:30:48.205Z,1020.47
2016-12-05T10:31:48.212Z,1020.46
2016-12-05T10:32:48.219Z,1020.48
2016-12-05T10:33:48.225Z,1020.47
2016-12-05T10:34:48.233Z,1020.46
2016-12-05T10:35:48.239Z,1020.46
2016-12-05T10:36:48.246Z,1020.44
2016-12-05T10:37:48.254Z,1020.44
2016-12-05T10:38:48.311Z,1020.48
2016-12-05T10:39:48.268Z,1020.48
2016-12-05T10:40:48.476Z,1020.49
2016-12-05T10:41:48.284Z,1020.48
2016-12-05T10:42:48.342Z,1020.46
2016-12-05T10:43:48.298Z,1020.45
2016-12-05T10:44:48.356Z,1020.46
2016-12-05T10:45:48.313Z,1020.48
2016-12-05T10:46:48.320Z,1020.49
2016-12-05T10:47:48.328Z,1020.49
2016-12-05T10:48:48.334Z,1020.51
2016-12-05T10:49:48.343Z,1020.5
2016-12-05T10:50:48.349Z,1020.49
2016-12-05T10:51:48.358Z,1020.54
2016-12-05T10:52:48.364Z,1020.55
2016-12-05T10:53:48.375Z,1020.55
2016-12-05T10:54:48.380Z,1020.56
2016-12-05T10:55:48.388Z,1020.54
2016-12-05T10:56:48.396Z,1020.52
2016-12-05T10:57:48.402Z,1020.51
2016-12-05T10:58:48.410Z,1020.52
2016-12-05T10:59:48.418Z,1020.47
2016-12-05T11:00:48.425Z,1020.48
2016-12-05T11:01:48.432Z,1020.46
2016-12-05T11:02:48.442Z,1020.46
2016-12-05T11:03:48.447Z,1020.46
2016-12-05T11:04:48.455Z,1020.45
2016-12-05T11:05:48.464Z,1020.42
2016-12-05T11:06:48.477Z,1020.43
2016-12-05T11:07:48.479Z,1020.42
2016-12-05T11:08:48.488Z,1020.42
2016-12-05T11:09:48.492Z,1020.38
2016-12-05T11:10:48.551Z,1020.42
2016-12-05T11:11:48.509Z,1020.4
2016-12-05T11:12:48.515Z,1020.39
2016-12-05T11:13:48.523Z,1020.4
2016-12-05T11:14:48.531Z,1020.43
2016-12-05T11:15:48.539Z,1020.39
2016-12-05T11:16:48.546Z,1020.37
2016-12-05T11:17:48.553Z,1020.36
2016-12-05T11:18:48.561Z,1020.41
2016-12-05T11:19:48.619Z,1020.36
2016-12-05T11:20:48.579Z,1020.39
2016-12-05T11:21:48.584Z,1020.38
2016-12-05T11:22:48.592Z,1020.41
2016-12-05T11:23:48.599Z,1020.39
2016-12-05T11:24:48.607Z,1020.44
2016-12-05T11:25:48.615Z,1020.41
2016-12-05T11:26:48.622Z,1020.41
2016-12-05T11:27:48.630Z,1020.38
2016-12-05T11:28:48.642Z,1020.35
2016-12-05T11:29:48.645Z,1020.34
2016-12-05T11:30:48.654Z,1020.34
2016-12-05T11:31:48.662Z,1020.33
2016-12-05T11:32:48.669Z,1020.3
2016-12-05T11:33:48.679Z,1020.26
2016-12-05T11:34:48.683Z,1020.26
2016-12-05T11:35:48.692Z,1020.23
2016-12-05T11:36:48.699Z,1020.22
2016-12-05T11:37:48.705Z,1020.17
2016-12-05T11:38:48.713Z,1020.17
2016-12-05T11:39:48.721Z,1020.17
2016-12-05T11:40:48.730Z,1020.15
2016-12-05T11:41:48.735Z,1020.15
2016-12-05T11:42:48.793Z,1020.17
2016-12-05T11:43:48.801Z,1020.16
2016-12-05T11:44:48.759Z,1020.17
2016-12-05T11:45:48.765Z,1020.16
2016-12-05T11:46:48.774Z,1020.14
2016-12-05T11:47:48.781Z,1020.15
2016-12-05T11:48:48.788Z,1020.1
2016-12-05T11:49:48.795Z,1020.06
2016-12-05T11:50:48.803Z,1020.09
2016-12-05T11:51:48.811Z,1020.06
2016-12-05T11:52:48.819Z,1020.05
2016-12-05T11:53:48.824Z,1020.02
2016-12-05T11:54:48.833Z,1020
2016-12-05T11:55:48.840Z,1019.96
2016-12-05T11:56:48.848Z,1019.97
2016-12-05T11:57:48.905Z,1019.95
2016-12-05T11:58:48.862Z,1019.95
2016-12-05T11:59:48.869Z,1019.94
2016-12-05T12:00:48.878Z,1019.94
2016-12-05T12:01:48.885Z,1019.95
2016-12-05T12:02:48.942Z,1019.97
2016-12-05T12:03:48.949Z,1019.97
2016-12-05T12:04:48.906Z,1019.98
2016-12-05T12:05:48.914Z,1020
2016-12-05T12:06:48.922Z,1019.97
2016-12-05T12:07:48.929Z,1020.01
2016-12-05T12:08:48.936Z,1019.99
2016-12-05T12:09:48.944Z,1020.01
2016-12-05T12:10:48.951Z,1019.97
2016-12-05T12:11:48.958Z,1019.99
2016-12-05T12:12:48.968Z,1019.99